Time;durP1;ratioP1;P1;durP2;ratioP2;P2;SDS_P1;SDS_P2;PMS_P1;PMS_P2;Temp;Humidity;BMP_temperature;BMP_pressure;BME280_temperature;BME280_humidity;BME280_pressure;Samples;Min_cycle;Max_cycle;Signal;HPM_P1;HPM_P2
2021/08/23 00:01:57;;;;;;;9.65;3.80;;;;;;;;;;4940289;28;20031;-77
2021/08/23 00:04:23;;;;;;;14.57;3.80;;;;;;;;;;4940690;28;20039;-77
2021/08/23 00:06:48;;;;;;;9.57;4.18;;;;;;;;;;4944690;28;20039;-77
2021/08/23 00:09:14;;;;;;;8.75;4.30;;;;;;;;;;4939185;28;20028;-77
2021/08/23 00:11:39;;;;;;;11.48;3.80;;;;;;;;;;4943793;28;20485;-77
2021/08/23 00:14:05;;;;;;;9.15;5.43;;;;;;;;;;4942314;28;20044;-77
2021/08/23 00:16:30;;;;;;;11.63;3.97;;;;;;;;;;4943614;28;20027;-77
2021/08/23 00:18:56;;;;;;;9.25;4.20;;;;;;;;;;4942606;28;20600;-77
2021/08/23 00:21:23;;;;;;;6.18;3.75;;;;;;;;;;4940884;28;20128;-77
2021/08/23 00:23:52;;;;;;;7.78;4.10;;;;;;;;;;4927124;29;20043;-77
2021/08/23 00:26:18;;;;;;;8.52;4.03;;;;;;;;;;4956031;28;20023;-77
2021/08/23 00:28:44;;;;;;;11.30;4.13;;;;;;;;;;4942902;28;20042;-77
2021/08/23 00:31:10;;;;;;;6.82;3.85;;;;;;;;;;4943367;28;22427;-77
2021/08/23 00:33:35;;;;;;;9.55;4.35;;;;;;;;;;4943994;28;20039;-77
2021/08/23 00:36:00;;;;;;;7.88;4.07;;;;;;;;;;4942411;28;20122;-77
2021/08/23 00:38:26;;;;;;;9.95;4.05;;;;;;;;;;4945085;28;20078;-77
2021/08/23 00:40:51;;;;;;;7.93;4.28;;;;;;;;;;4939906;28;20042;-77
2021/08/23 00:43:17;;;;;;;8.07;4.15;;;;;;;;;;4954014;28;20114;-77
2021/08/23 00:45:42;;;;;;;12.73;4.40;;;;;;;;;;4942777;28;20050;-77
2021/08/23 00:48:09;;;;;;;10.65;4.65;;;;;;;;;;4946252;28;20074;-77
2021/08/23 00:50:35;;;;;;;6.03;4.00;;;;;;;;;;4935237;28;20039;-77
2021/08/23 00:53:02;;;;;;;6.45;4.20;;;;;;;;;;4941177;28;20031;-77
2021/08/23 00:55:29;;;;;;;9.65;4.50;;;;;;;;;;4940804;28;20032;-77
2021/08/23 00:57:54;;;;;;;7.85;4.10;;;;;;;;;;4941102;28;20041;-77
2021/08/23 01:00:20;;;;;;;9.80;4.55;;;;;;;;;;4961138;28;20059;-78
2021/08/23 01:02:54;;;;;;;12.38;4.75;;;;;;;;;;4984833;28;20470;-77
2021/08/23 01:05:30;;;;;;;7.97;4.20;;;;;;;;;;4964478;28;20545;-78
2021/08/23 01:07:59;;;;;;;13.88;4.68;;;;;;;;;;4964080;28;20042;-78
2021/08/23 01:10:30;;;;;;;11.27;5.40;;;;;;;;;;4960991;28;20030;-77
2021/08/23 01:12:57;;;;;;;9.07;4.75;;;;;;;;;;4958521;28;20038;-77
2021/08/23 01:15:22;;;;;;;9.25;4.10;;;;;;;;;;4966638;28;20029;-77
2021/08/23 01:17:48;;;;;;;12.65;4.75;;;;;;;;;;4967946;28;20505;-77
2021/08/23 01:20:14;;;;;;;7.07;4.13;;;;;;;;;;4963269;28;20101;-77
2021/08/23 01:22:47;;;;;;;11.20;4.28;;;;;;;;;;4962237;28;20038;-77
2021/08/23 01:25:20;;;;;;;8.65;3.80;;;;;;;;;;4961256;28;20031;-77
2021/08/23 01:28:00;;;;;;;7.57;4.22;;;;;;;;;;4962244;28;20061;-77
2021/08/23 01:30:31;;;;;;;8.93;4.93;;;;;;;;;;4964470;28;20531;-77
2021/08/23 01:32:56;;;;;;;12.70;4.00;;;;;;;;;;4962528;28;20134;-77
2021/08/23 01:35:22;;;;;;;11.48;4.47;;;;;;;;;;4962839;28;20169;-77
2021/08/23 01:37:48;;;;;;;12.38;4.18;;;;;;;;;;4959733;28;20035;-77
2021/08/23 01:40:14;;;;;;;11.70;4.60;;;;;;;;;;4979096;28;20026;-77
2021/08/23 01:42:39;;;;;;;8.23;4.18;;;;;;;;;;4959704;28;20558;-77
2021/08/23 01:45:05;;;;;;;7.90;3.90;;;;;;;;;;4959676;28;20089;-77
2021/08/23 01:47:31;;;;;;;8.68;4.22;;;;;;;;;;4940559;28;20027;-77
2021/08/23 01:49:56;;;;;;;6.68;4.25;;;;;;;;;;4961900;28;20022;-77
2021/08/23 01:52:22;;;;;;;10.07;5.10;;;;;;;;;;4960174;28;20538;-77
2021/08/23 01:54:47;;;;;;;7.63;4.57;;;;;;;;;;4965276;28;20802;-77
2021/08/23 01:57:15;;;;;;;10.43;4.13;;;;;;;;;;4967055;28;20114;-77
2021/08/23 01:59:40;;;;;;;9.35;4.50;;;;;;;;;;4963125;28;20031;-77
2021/08/23 02:02:06;;;;;;;7.07;4.22;;;;;;;;;;4966032;28;20031;-77
2021/08/23 02:04:31;;;;;;;10.52;4.20;;;;;;;;;;4962422;28;20043;-78
2021/08/23 02:06:57;;;;;;;9.95;4.40;;;;;;;;;;4964523;28;20055;-77
2021/08/23 02:09:22;;;;;;;9.43;4.35;;;;;;;;;;4958154;28;20031;-77
2021/08/23 02:11:48;;;;;;;9.50;3.70;;;;;;;;;;4947621;28;20035;-77
2021/08/23 02:14:13;;;;;;;10.07;3.85;;;;;;;;;;4947776;28;20082;-77
2021/08/23 02:16:41;;;;;;;9.00;4.00;;;;;;;;;;4956721;28;20146;-77
2021/08/23 02:19:07;;;;;;;10.70;4.22;;;;;;;;;;4966799;28;20722;-77
2021/08/23 02:21:48;;;;;;;6.53;3.50;;;;;;;;;;4957310;28;20527;-77
2021/08/23 02:24:13;;;;;;;8.95;4.50;;;;;;;;;;4958583;28;20031;-77
2021/08/23 02:26:39;;;;;;;13.98;4.57;;;;;;;;;;4981001;28;20041;-77
2021/08/23 02:29:04;;;;;;;14.50;4.15;;;;;;;;;;4970884;28;20073;-77
2021/08/23 02:31:29;;;;;;;11.60;4.18;;;;;;;;;;4944958;28;20183;-78
2021/08/23 02:33:55;;;;;;;7.95;4.10;;;;;;;;;;4968088;28;20039;-78
2021/08/23 02:36:21;;;;;;;6.85;4.25;;;;;;;;;;4957280;28;20153;-78
2021/08/23 02:38:49;;;;;;;7.03;3.88;;;;;;;;;;4947635;28;20396;-77
2021/08/23 02:41:14;;;;;;;16.33;4.53;;;;;;;;;;4960076;28;20083;-77
2021/08/23 02:43:40;;;;;;;9.00;4.00;;;;;;;;;;4942556;28;20133;-77
2021/08/23 02:46:05;;;;;;;12.00;3.85;;;;;;;;;;4981926;28;20058;-77
2021/08/23 02:48:31;;;;;;;6.53;3.55;;;;;;;;;;4959460;28;20031;-77
2021/08/23 02:50:56;;;;;;;7.80;4.15;;;;;;;;;;4964606;28;20491;-77
2021/08/23 02:53:22;;;;;;;12.13;4.50;;;;;;;;;;4945834;28;20389;-77
2021/08/23 02:55:47;;;;;;;16.13;4.30;;;;;;;;;;4959580;28;20042;-77
2021/08/23 02:58:13;;;;;;;10.57;4.20;;;;;;;;;;4962757;28;20042;-77
2021/08/23 03:00:38;;;;;;;10.55;4.40;;;;;;;;;;4957842;28;20093;-77
2021/08/23 03:03:04;;;;;;;8.25;4.75;;;;;;;;;;4962861;28;20034;-77
2021/08/23 03:05:29;;;;;;;8.13;4.50;;;;;;;;;;4961773;28;20468;-77
2021/08/23 03:07:54;;;;;;;10.07;4.88;;;;;;;;;;4957753;28;20030;-77
2021/08/23 03:10:20;;;;;;;8.00;4.47;;;;;;;;;;4958433;28;20054;-77
2021/08/23 03:12:46;;;;;;;7.95;3.95;;;;;;;;;;4958656;28;20045;-77
2021/08/23 03:15:11;;;;;;;6.63;4.10;;;;;;;;;;4960408;28;20440;-77
2021/08/23 03:17:37;;;;;;;11.00;4.07;;;;;;;;;;4975508;28;20038;-77
2021/08/23 03:20:04;;;;;;;8.80;4.15;;;;;;;;;;4971365;28;20491;-77
2021/08/23 03:22:30;;;;;;;10.85;4.53;;;;;;;;;;4960160;28;20065;-77
2021/08/23 03:24:55;;;;;;;12.48;4.95;;;;;;;;;;4967413;28;20136;-77
2021/08/23 03:27:21;;;;;;;10.18;4.68;;;;;;;;;;4958365;28;20629;-77
2021/08/23 03:29:50;;;;;;;9.85;4.05;;;;;;;;;;4964437;28;20028;-77
2021/08/23 03:32:16;;;;;;;10.05;4.25;;;;;;;;;;4964843;28;20094;-77
2021/08/23 03:34:42;;;;;;;9.73;4.85;;;;;;;;;;4965618;28;20030;-77
2021/08/23 03:37:07;;;;;;;7.78;4.13;;;;;;;;;;4957418;28;20042;-77
2021/08/23 03:39:33;;;;;;;15.38;4.85;;;;;;;;;;4967442;28;20035;-77
2021/08/23 03:41:59;;;;;;;8.27;4.65;;;;;;;;;;4962417;28;20066;-77
2021/08/23 03:44:24;;;;;;;10.88;4.72;;;;;;;;;;4959358;28;20786;-77
2021/08/23 03:46:52;;;;;;;8.38;4.20;;;;;;;;;;4944047;28;20065;-77
2021/08/23 03:49:18;;;;;;;12.45;4.72;;;;;;;;;;4954352;28;20539;-77
2021/08/23 03:51:43;;;;;;;6.22;4.00;;;;;;;;;;4962021;28;20042;-77
2021/08/23 03:54:09;;;;;;;9.50;4.63;;;;;;;;;;4961011;28;20039;-77
2021/08/23 03:56:34;;;;;;;17.65;4.68;;;;;;;;;;4962223;28;20077;-77
2021/08/23 03:59:00;;;;;;;15.48;4.57;;;;;;;;;;4961730;28;20074;-77
2021/08/23 04:01:25;;;;;;;10.85;4.85;;;;;;;;;;4937953;28;20043;-77
2021/08/23 04:03:51;;;;;;;14.93;4.93;;;;;;;;;;4961970;28;20035;-77
2021/08/23 04:06:16;;;;;;;12.90;4.50;;;;;;;;;;4973454;28;20031;-77
2021/08/23 04:08:43;;;;;;;8.32;4.68;;;;;;;;;;4962837;28;20551;-77
2021/08/23 04:11:12;;;;;;;9.40;5.00;;;;;;;;;;4972031;28;20496;-77
2021/08/23 04:13:39;;;;;;;14.45;4.70;;;;;;;;;;4961583;28;20039;-77
2021/08/23 04:16:04;;;;;;;13.07;4.80;;;;;;;;;;4967429;28;20058;-77
2021/08/23 04:18:29;;;;;;;8.80;4.65;;;;;;;;;;4986296;28;20670;-77
2021/08/23 04:20:55;;;;;;;9.80;4.70;;;;;;;;;;4960496;28;20046;-77
2021/08/23 04:23:20;;;;;;;12.48;5.15;;;;;;;;;;4960731;28;20761;-77
2021/08/23 04:25:46;;;;;;;15.32;5.90;;;;;;;;;;4974644;28;20028;-77
2021/08/23 04:28:11;;;;;;;14.18;5.28;;;;;;;;;;4966510;28;20690;-77
2021/08/23 04:30:37;;;;;;;7.90;4.18;;;;;;;;;;4966551;28;20035;-77
2021/08/23 04:33:03;;;;;;;17.08;4.65;;;;;;;;;;4954469;28;20039;-77
2021/08/23 04:35:28;;;;;;;8.85;4.72;;;;;;;;;;4957674;28;20030;-77
2021/08/23 04:37:53;;;;;;;10.20;4.55;;;;;;;;;;4945713;28;20038;-77
2021/08/23 04:40:19;;;;;;;15.00;5.05;;;;;;;;;;4984939;28;20035;-77
2021/08/23 04:42:44;;;;;;;12.52;6.47;;;;;;;;;;4964370;28;20202;-77
2021/08/23 04:45:10;;;;;;;20.90;7.43;;;;;;;;;;4957278;28;20027;-77
2021/08/23 04:47:36;;;;;;;12.60;7.15;;;;;;;;;;4964330;28;20050;-77
2021/08/23 04:50:02;;;;;;;16.67;6.95;;;;;;;;;;4953493;28;20693;-77
2021/08/23 04:52:27;;;;;;;12.82;6.03;;;;;;;;;;4971767;28;20050;-77
2021/08/23 04:54:53;;;;;;;12.63;6.57;;;;;;;;;;4959565;28;20038;-77
2021/08/23 04:57:19;;;;;;;10.73;6.10;;;;;;;;;;4980414;28;20035;-77
2021/08/23 04:59:44;;;;;;;12.25;5.93;;;;;;;;;;4961274;28;20031;-77
2021/08/23 05:02:10;;;;;;;11.52;6.03;;;;;;;;;;4959305;28;20027;-77
2021/08/23 05:04:35;;;;;;;15.48;6.38;;;;;;;;;;4966907;28;20042;-77
2021/08/23 05:07:01;;;;;;;8.90;5.95;;;;;;;;;;4956479;28;20135;-77
2021/08/23 05:09:26;;;;;;;10.10;5.63;;;;;;;;;;4966432;28;20481;-77
2021/08/23 05:11:52;;;;;;;11.68;5.72;;;;;;;;;;4974928;28;20033;-77
2021/08/23 05:14:17;;;;;;;10.35;5.18;;;;;;;;;;4959412;28;20511;-77
2021/08/23 05:16:43;;;;;;;9.55;5.38;;;;;;;;;;4961605;28;20035;-77
2021/08/23 05:19:08;;;;;;;9.32;5.35;;;;;;;;;;4968406;28;20793;-77
2021/08/23 05:21:34;;;;;;;11.63;5.00;;;;;;;;;;4963960;28;20093;-77
2021/08/23 05:23:59;;;;;;;10.18;5.20;;;;;;;;;;4967429;28;20415;-78
2021/08/23 05:26:25;;;;;;;10.25;5.20;;;;;;;;;;4956826;28;20043;-77
2021/08/23 05:28:50;;;;;;;14.00;5.78;;;;;;;;;;4944624;28;20579;-77
2021/08/23 05:31:17;;;;;;;6.95;4.80;;;;;;;;;;4972351;28;20058;-77
2021/08/23 05:33:43;;;;;;;11.65;5.88;;;;;;;;;;4972430;28;20039;-77
2021/08/23 05:36:08;;;;;;;10.00;5.22;;;;;;;;;;4948623;28;20611;-77
2021/08/23 05:38:34;;;;;;;9.32;5.13;;;;;;;;;;4965470;28;20026;-76
2021/08/23 05:40:59;;;;;;;10.82;5.57;;;;;;;;;;4965679;28;20027;-77
2021/08/23 05:43:25;;;;;;;13.50;5.63;;;;;;;;;;4968137;28;20629;-77
2021/08/23 05:45:50;;;;;;;9.15;5.78;;;;;;;;;;4954559;28;20056;-76
2021/08/23 05:48:16;;;;;;;10.75;5.47;;;;;;;;;;4947862;28;20031;-77
2021/08/23 05:50:42;;;;;;;9.63;5.65;;;;;;;;;;4960678;28;20026;-77
2021/08/23 05:53:07;;;;;;;8.68;4.53;;;;;;;;;;4958866;28;20488;-76
2021/08/23 05:55:33;;;;;;;10.90;6.00;;;;;;;;;;4970530;28;20046;-77
2021/08/23 05:57:58;;;;;;;10.77;5.60;;;;;;;;;;4962460;28;20092;-77
2021/08/23 06:00:24;;;;;;;22.27;6.65;;;;;;;;;;4964372;28;20138;-77
2021/08/23 06:02:49;;;;;;;11.80;6.43;;;;;;;;;;4959994;28;20027;-77
2021/08/23 06:05:15;;;;;;;9.23;5.78;;;;;;;;;;4942503;28;20043;-77
2021/08/23 06:07:41;;;;;;;11.25;5.70;;;;;;;;;;4978666;28;20035;-77
2021/08/23 06:10:10;;;;;;;16.63;5.80;;;;;;;;;;4968165;28;20023;-77
2021/08/23 06:12:35;;;;;;;13.85;5.35;;;;;;;;;;4971142;28;20189;-77
2021/08/23 06:15:00;;;;;;;12.70;6.43;;;;;;;;;;4966406;28;20106;-77
2021/08/23 06:17:29;;;;;;;15.55;5.85;;;;;;;;;;4974378;28;20034;-76
2021/08/23 06:19:54;;;;;;;16.17;6.53;;;;;;;;;;4950482;28;20674;-77
2021/08/23 06:22:20;;;;;;;14.00;6.40;;;;;;;;;;4984462;28;20045;-77
2021/08/23 06:24:45;;;;;;;13.18;5.63;;;;;;;;;;4978424;28;20034;-77
2021/08/23 06:27:10;;;;;;;8.80;5.82;;;;;;;;;;4932338;28;20097;-77
2021/08/23 06:29:36;;;;;;;12.15;5.63;;;;;;;;;;4967413;28;20034;-77
2021/08/23 06:32:03;;;;;;;11.98;6.35;;;;;;;;;;4970259;28;20034;-77
2021/08/23 06:34:29;;;;;;;16.63;7.32;;;;;;;;;;4976643;28;20087;-77
2021/08/23 06:36:55;;;;;;;11.57;6.45;;;;;;;;;;4972343;28;20069;-76
2021/08/23 06:39:21;;;;;;;21.00;8.77;;;;;;;;;;4977226;28;20062;-77
2021/08/23 06:41:46;;;;;;;31.48;9.80;;;;;;;;;;4966710;28;20520;-77
2021/08/23 06:44:12;;;;;;;26.83;8.85;;;;;;;;;;4975963;28;20023;-77
2021/08/23 06:46:39;;;;;;;29.17;9.57;;;;;;;;;;4977891;28;20475;-77
2021/08/23 06:49:04;;;;;;;39.38;10.32;;;;;;;;;;4958074;28;20034;-77
2021/08/23 06:51:30;;;;;;;43.58;12.13;;;;;;;;;;4958796;28;20034;-76
2021/08/23 06:53:55;;;;;;;37.65;11.23;;;;;;;;;;4964751;28;20439;-77
2021/08/23 06:56:21;;;;;;;42.47;11.57;;;;;;;;;;4960423;28;20587;-77
2021/08/23 06:58:47;;;;;;;41.05;11.95;;;;;;;;;;4984817;28;20093;-77
2021/08/23 07:01:12;;;;;;;33.53;10.43;;;;;;;;;;4947120;28;20070;-77
2021/08/23 07:03:38;;;;;;;36.53;12.07;;;;;;;;;;4969390;28;20194;-77
2021/08/23 07:06:03;;;;;;;31.48;10.10;;;;;;;;;;4960482;28;20117;-77
2021/08/23 07:08:29;;;;;;;31.63;10.07;;;;;;;;;;4972390;28;20166;-77
2021/08/23 07:10:56;;;;;;;29.98;10.07;;;;;;;;;;4980322;28;20514;-77
2021/08/23 07:13:22;;;;;;;26.38;9.85;;;;;;;;;;4965118;28;20023;-77
2021/08/23 07:15:48;;;;;;;30.98;10.95;;;;;;;;;;4968405;28;20031;-77
2021/08/23 07:18:13;;;;;;;37.30;11.70;;;;;;;;;;4948386;28;20566;-77
2021/08/23 07:20:38;;;;;;;32.30;11.27;;;;;;;;;;4962854;28;20038;-77
2021/08/23 07:23:04;;;;;;;27.48;10.50;;;;;;;;;;4963294;28;20619;-77
2021/08/23 07:25:29;;;;;;;25.75;11.43;;;;;;;;;;4970972;28;20026;-77
2021/08/23 07:27:57;;;;;;;28.50;10.85;;;;;;;;;;4962932;28;20062;-77
2021/08/23 07:30:22;;;;;;;29.55;10.23;;;;;;;;;;4956238;28;20027;-77
2021/08/23 07:32:48;;;;;;;28.70;10.40;;;;;;;;;;4963463;28;20089;-77
2021/08/23 07:35:13;;;;;;;23.05;9.30;;;;;;;;;;4958953;28;20037;-77
2021/08/23 07:37:47;;;;;;;22.90;9.57;;;;;;;;;;4940530;28;20053;-77
2021/08/23 07:40:14;;;;;;;24.42;9.82;;;;;;;;;;4963151;28;20028;-77
2021/08/23 07:42:40;;;;;;;23.20;8.50;;;;;;;;;;4960138;28;20043;-76
2021/08/23 07:45:06;;;;;;;19.95;7.85;;;;;;;;;;4958188;28;20034;-77
2021/08/23 07:47:32;;;;;;;19.10;7.65;;;;;;;;;;4960369;28;20035;-77
2021/08/23 07:49:57;;;;;;;20.08;8.25;;;;;;;;;;4956402;28;20126;-77
2021/08/23 07:52:23;;;;;;;17.92;7.32;;;;;;;;;;4957922;28;20042;-77
2021/08/23 07:54:48;;;;;;;19.33;7.35;;;;;;;;;;4966305;28;20034;-77
2021/08/23 07:57:15;;;;;;;19.88;7.65;;;;;;;;;;4967456;28;20031;-77
2021/08/23 07:59:40;;;;;;;18.27;7.10;;;;;;;;;;4966765;28;20114;-77
2021/08/23 08:02:06;;;;;;;20.65;6.75;;;;;;;;;;4973075;28;20099;-77
2021/08/23 08:04:31;;;;;;;15.00;6.20;;;;;;;;;;4958067;28;20115;-77
2021/08/23 08:06:57;;;;;;;12.23;4.55;;;;;;;;;;4941562;28;20031;-77
2021/08/23 08:09:22;;;;;;;9.27;4.70;;;;;;;;;;4954007;28;20027;-77
2021/08/23 08:11:48;;;;;;;9.52;4.35;;;;;;;;;;4960982;28;20109;-78
2021/08/23 08:14:13;;;;;;;9.57;4.57;;;;;;;;;;4967046;28;20129;-76
2021/08/23 08:16:39;;;;;;;6.60;3.53;;;;;;;;;;4940727;28;20031;-77
2021/08/23 08:19:04;;;;;;;8.18;3.65;;;;;;;;;;4964413;28;20037;-77
2021/08/23 08:21:30;;;;;;;7.18;3.40;;;;;;;;;;4961179;28;20532;-76
2021/08/23 08:23:55;;;;;;;10.48;4.00;;;;;;;;;;4955473;28;20126;-76
2021/08/23 08:26:22;;;;;;;11.55;5.22;;;;;;;;;;4959463;28;20110;-76
2021/08/23 08:28:48;;;;;;;5.82;2.85;;;;;;;;;;4963768;28;20129;-77
2021/08/23 08:31:13;;;;;;;7.53;3.28;;;;;;;;;;4970097;28;20141;-77
2021/08/23 08:33:39;;;;;;;6.70;3.70;;;;;;;;;;4964490;28;20097;-77
2021/08/23 08:36:04;;;;;;;7.38;3.17;;;;;;;;;;4963120;28;20035;-77
2021/08/23 08:38:30;;;;;;;7.47;3.20;;;;;;;;;;4962416;28;20027;-78
2021/08/23 08:40:59;;;;;;;8.80;2.80;;;;;;;;;;4968181;28;20039;-77
2021/08/23 08:43:25;;;;;;;4.45;2.25;;;;;;;;;;4966792;28;20131;-77
2021/08/23 08:45:51;;;;;;;4.70;2.10;;;;;;;;;;4947209;28;20035;-77
2021/08/23 08:48:19;;;;;;;3.97;2.15;;;;;;;;;;4966532;28;20514;-78
2021/08/23 08:50:44;;;;;;;3.58;1.98;;;;;;;;;;4973907;28;20026;-77
2021/08/23 08:53:10;;;;;;;6.28;1.73;;;;;;;;;;4969075;28;20125;-77
2021/08/23 08:55:36;;;;;;;4.18;2.00;;;;;;;;;;4963132;28;20058;-77
2021/08/23 08:58:05;;;;;;;4.68;1.95;;;;;;;;;;4969020;28;20053;-76
2021/08/23 09:00:36;;;;;;;3.47;2.00;;;;;;;;;;4961763;28;20034;-76
2021/08/23 09:03:02;;;;;;;3.35;1.70;;;;;;;;;;4979740;28;20070;-77
2021/08/23 09:05:44;;;;;;;3.92;1.70;;;;;;;;;;4971135;28;20063;-77
2021/08/23 09:08:10;;;;;;;4.28;1.83;;;;;;;;;;4948823;28;20650;-77
2021/08/23 09:10:40;;;;;;;3.97;1.52;;;;;;;;;;4967473;28;20035;-75
2021/08/23 09:13:11;;;;;;;1.58;1.38;;;;;;;;;;4966877;28;20091;-76
2021/08/23 09:15:39;;;;;;;1.95;1.52;;;;;;;;;;4964881;28;20039;-75
2021/08/23 09:18:08;;;;;;;3.38;1.75;;;;;;;;;;4963611;28;20105;-76
2021/08/23 09:20:36;;;;;;;3.03;1.52;;;;;;;;;;4966554;28;20125;-77
2021/08/23 09:23:13;;;;;;;5.10;1.90;;;;;;;;;;4973486;28;20037;-78
2021/08/23 09:25:41;;;;;;;4.72;2.05;;;;;;;;;;4968023;28;20117;-79
2021/08/23 09:28:08;;;;;;;5.07;1.90;;;;;;;;;;4961775;28;20040;-77
2021/08/23 09:30:35;;;;;;;4.38;1.83;;;;;;;;;;4962793;28;20538;-77
2021/08/23 09:33:02;;;;;;;3.67;1.70;;;;;;;;;;4967609;28;20443;-77
2021/08/23 09:35:31;;;;;;;4.53;2.00;;;;;;;;;;4981473;28;20034;-77
2021/08/23 09:37:57;;;;;;;5.45;2.30;;;;;;;;;;4964606;28;21954;-77
2021/08/23 09:40:33;;;;;;;3.28;1.80;;;;;;;;;;4979293;28;20031;-77
2021/08/23 09:43:10;;;;;;;5.85;2.17;;;;;;;;;;4960529;28;20054;-76
2021/08/23 09:45:37;;;;;;;2.78;1.52;;;;;;;;;;4961329;28;20495;-77
2021/08/23 09:48:05;;;;;;;5.15;2.15;;;;;;;;;;4964153;28;20066;-76
2021/08/23 09:50:56;;;;;;;6.15;2.55;;;;;;;;;;4963261;28;20023;-77
2021/08/23 09:53:21;;;;;;;5.65;3.10;;;;;;;;;;4961883;28;20023;-76
2021/08/23 09:55:49;;;;;;;5.25;2.63;;;;;;;;;;4968844;28;20046;-76
2021/08/23 09:58:15;;;;;;;6.03;2.78;;;;;;;;;;4968750;28;20034;-76
2021/08/23 10:00:42;;;;;;;8.27;2.67;;;;;;;;;;4966506;28;20054;-77
2021/08/23 10:03:14;;;;;;;3.80;2.40;;;;;;;;;;4958723;28;22878;-77
2021/08/23 10:05:42;;;;;;;5.15;2.45;;;;;;;;;;4970461;28;20316;-77
2021/08/23 10:08:10;;;;;;;5.78;2.63;;;;;;;;;;4965256;28;20125;-77
2021/08/23 10:10:39;;;;;;;4.78;2.72;;;;;;;;;;4970993;28;20027;-76
2021/08/23 10:13:05;;;;;;;6.15;2.72;;;;;;;;;;4969479;28;20034;-77
2021/08/23 10:15:30;;;;;;;5.72;3.08;;;;;;;;;;4965467;28;20121;-77
2021/08/23 10:18:00;;;;;;;7.65;3.30;;;;;;;;;;4966108;28;20423;-76
2021/08/23 10:20:25;;;;;;;13.65;3.53;;;;;;;;;;4976695;28;20129;-77
2021/08/23 10:22:51;;;;;;;13.00;3.90;;;;;;;;;;4965180;28;20151;-76
2021/08/23 10:25:18;;;;;;;8.13;3.35;;;;;;;;;;4967552;28;20077;-77
2021/08/23 10:27:43;;;;;;;4.68;3.03;;;;;;;;;;4968276;28;20038;-77
2021/08/23 10:30:22;;;;;;;5.30;2.78;;;;;;;;;;4963816;28;20050;-77
2021/08/23 10:32:47;;;;;;;7.38;3.00;;;;;;;;;;4964329;28;20045;-77
2021/08/23 10:35:20;;;;;;;6.93;2.70;;;;;;;;;;4945402;28;20042;-77
2021/08/23 10:37:46;;;;;;;4.20;2.40;;;;;;;;;;4967523;28;20523;-76
2021/08/23 10:40:13;;;;;;;7.32;3.35;;;;;;;;;;4964042;28;20023;-77
2021/08/23 10:42:42;;;;;;;7.40;2.83;;;;;;;;;;4961440;28;20558;-77
2021/08/23 10:45:15;;;;;;;11.35;3.28;;;;;;;;;;4972894;28;20582;-78
2021/08/23 10:47:41;;;;;;;6.75;3.30;;;;;;;;;;4961847;28;20034;-77
2021/08/23 10:50:19;;;;;;;5.93;3.00;;;;;;;;;;4961534;28;20027;-77
2021/08/23 10:52:45;;;;;;;6.47;2.72;;;;;;;;;;4963770;28;20071;-77
2021/08/23 10:55:22;;;;;;;5.53;3.20;;;;;;;;;;4967684;28;20030;-77
2021/08/23 10:57:48;;;;;;;7.68;2.97;;;;;;;;;;4964901;28;20034;-78
2021/08/23 11:00:15;;;;;;;7.38;3.20;;;;;;;;;;4964520;28;20022;-78
2021/08/23 11:02:41;;;;;;;5.20;3.05;;;;;;;;;;4922759;28;20046;-77
2021/08/23 11:05:12;;;;;;;9.00;3.38;;;;;;;;;;4964609;28;20109;-76
2021/08/23 11:07:43;;;;;;;7.97;3.70;;;;;;;;;;4971324;28;20041;-76
2021/08/23 11:10:11;;;;;;;9.40;3.60;;;;;;;;;;4960354;28;20034;-77
2021/08/23 11:12:48;;;;;;;6.93;4.55;;;;;;;;;;4966138;28;20022;-77
2021/08/23 11:15:20;;;;;;;9.68;4.90;;;;;;;;;;4965366;28;20050;-77
2021/08/23 11:17:51;;;;;;;12.25;4.53;;;;;;;;;;4960766;28;20026;-78
2021/08/23 11:20:22;;;;;;;12.85;4.60;;;;;;;;;;4962025;28;20031;-78
2021/08/23 11:23:02;;;;;;;8.90;4.05;;;;;;;;;;4978619;28;20064;-77
2021/08/23 11:25:49;;;;;;;6.72;3.60;;;;;;;;;;4966121;28;20041;-77
2021/08/23 11:28:26;;;;;;;10.38;4.55;;;;;;;;;;4966395;28;20740;-77
2021/08/23 11:30:54;;;;;;;8.43;5.20;;;;;;;;;;4965640;28;20031;-77
2021/08/23 11:33:33;;;;;;;14.48;5.15;;;;;;;;;;4974887;28;20543;-77
2021/08/23 11:36:01;;;;;;;8.20;5.13;;;;;;;;;;4961681;28;20039;-77
2021/08/23 11:38:31;;;;;;;8.57;5.25;;;;;;;;;;4972680;28;20093;-78
2021/08/23 11:40:58;;;;;;;10.48;5.20;;;;;;;;;;4968533;28;20031;-77
2021/08/23 11:43:28;;;;;;;8.45;3.80;;;;;;;;;;4965026;28;21093;-77
2021/08/23 11:45:54;;;;;;;8.52;4.78;;;;;;;;;;4962618;28;20038;-77
2021/08/23 11:48:20;;;;;;;6.78;4.10;;;;;;;;;;4959439;28;20114;-77
2021/08/23 11:50:45;;;;;;;5.93;3.90;;;;;;;;;;4962373;28;20074;-78
2021/08/23 11:53:14;;;;;;;6.60;4.03;;;;;;;;;;4948269;28;20051;-78
2021/08/23 11:55:43;;;;;;;6.50;3.90;;;;;;;;;;4964279;28;20066;-77
2021/08/23 11:58:20;;;;;;;9.73;4.57;;;;;;;;;;4968924;28;20128;-77
2021/08/23 12:00:59;;;;;;;8.60;4.70;;;;;;;;;;4964049;28;20524;-78
2021/08/23 12:03:24;;;;;;;6.70;4.43;;;;;;;;;;4953526;28;20038;-77
2021/08/23 12:05:50;;;;;;;8.45;3.90;;;;;;;;;;4938483;28;20031;-76
2021/08/23 12:08:27;;;;;;;7.25;4.43;;;;;;;;;;4959089;28;20117;-77
2021/08/23 12:10:54;;;;;;;8.75;5.22;;;;;;;;;;4958721;28;20106;-78
2021/08/23 12:13:22;;;;;;;6.15;4.68;;;;;;;;;;4958006;28;20597;-78
2021/08/23 12:16:03;;;;;;;5.13;3.38;;;;;;;;;;4973577;28;20036;-78
2021/08/23 12:18:33;;;;;;;7.35;4.40;;;;;;;;;;4967931;28;20295;-77
2021/08/23 12:21:05;;;;;;;8.07;4.00;;;;;;;;;;4959622;28;20058;-77
2021/08/23 12:23:47;;;;;;;8.27;4.68;;;;;;;;;;4960922;28;20050;-79
2021/08/23 12:26:14;;;;;;;7.55;4.15;;;;;;;;;;4969615;28;20039;-78
2021/08/23 12:28:53;;;;;;;7.82;4.20;;;;;;;;;;4966732;28;20647;-78
2021/08/23 12:31:19;;;;;;;6.68;3.80;;;;;;;;;;4961892;28;20056;-79
2021/08/23 12:33:45;;;;;;;5.72;3.63;;;;;;;;;;4973865;28;20057;-78
2021/08/23 12:36:11;;;;;;;5.45;3.13;;;;;;;;;;4960301;28;20365;-77
2021/08/23 12:38:37;;;;;;;5.50;3.30;;;;;;;;;;4967910;28;20027;-77
2021/08/23 12:41:03;;;;;;;4.75;3.03;;;;;;;;;;4967052;28;20035;-78
2021/08/23 12:43:28;;;;;;;3.63;2.10;;;;;;;;;;4951563;28;20105;-78
2021/08/23 12:45:54;;;;;;;4.25;2.50;;;;;;;;;;4966957;28;20035;-78
2021/08/23 12:48:19;;;;;;;4.57;2.67;;;;;;;;;;4969893;28;20097;-78
2021/08/23 12:50:45;;;;;;;8.82;3.83;;;;;;;;;;4965219;28;20512;-75
2021/08/23 12:53:10;;;;;;;6.47;4.63;;;;;;;;;;4986543;28;20104;-76
2021/08/23 12:55:36;;;;;;;8.15;4.88;;;;;;;;;;4965135;28;20035;-76
2021/08/23 12:58:01;;;;;;;8.63;5.65;;;;;;;;;;4974112;28;20035;-77
2021/08/23 13:00:27;;;;;;;12.20;6.00;;;;;;;;;;4970417;28;20022;-75
2021/08/23 13:02:52;;;;;;;8.50;5.93;;;;;;;;;;4949655;28;20480;-77
2021/08/23 13:05:17;;;;;;;9.52;6.03;;;;;;;;;;4967394;28;20042;-76
2021/08/23 13:07:43;;;;;;;9.02;5.18;;;;;;;;;;4975562;28;20504;-76
2021/08/23 13:10:09;;;;;;;9.32;5.80;;;;;;;;;;4965233;28;20077;-76
2021/08/23 13:12:35;;;;;;;13.13;6.07;;;;;;;;;;4973410;28;20828;-76
2021/08/23 13:15:01;;;;;;;7.97;5.30;;;;;;;;;;4968152;28;20042;-76
2021/08/23 13:17:26;;;;;;;8.13;4.88;;;;;;;;;;4977497;28;20093;-76
2021/08/23 13:19:52;;;;;;;8.70;5.30;;;;;;;;;;4975108;28;20452;-76
2021/08/23 13:22:18;;;;;;;6.90;4.70;;;;;;;;;;4976103;28;20057;-76
2021/08/23 13:24:44;;;;;;;9.10;4.75;;;;;;;;;;4965230;28;20050;-76
2021/08/23 13:27:09;;;;;;;6.63;5.10;;;;;;;;;;4970117;28;20048;-76
2021/08/23 13:29:35;;;;;;;6.88;4.95;;;;;;;;;;4963811;28;20058;-76
2021/08/23 13:32:00;;;;;;;10.55;5.50;;;;;;;;;;4959749;28;20526;-76
2021/08/23 13:34:26;;;;;;;12.60;4.97;;;;;;;;;;4962636;28;20035;-76
2021/08/23 13:36:52;;;;;;;9.65;5.00;;;;;;;;;;4969049;28;20034;-76
2021/08/23 13:39:17;;;;;;;10.02;5.20;;;;;;;;;;4952444;28;20034;-76
2021/08/23 13:41:43;;;;;;;6.15;4.18;;;;;;;;;;4968473;28;20034;-77
2021/08/23 13:44:08;;;;;;;7.75;4.18;;;;;;;;;;4980461;28;20456;-76
2021/08/23 13:46:34;;;;;;;8.55;3.83;;;;;;;;;;4976185;28;20617;-76
2021/08/23 13:48:59;;;;;;;6.25;4.65;;;;;;;;;;4965818;28;20037;-75
2021/08/23 13:51:25;;;;;;;6.18;4.45;;;;;;;;;;4975226;28;20037;-76
2021/08/23 13:53:50;;;;;;;9.80;4.65;;;;;;;;;;4966574;28;20141;-76
2021/08/23 13:56:17;;;;;;;7.22;4.63;;;;;;;;;;4965368;28;20089;-76
2021/08/23 13:58:43;;;;;;;7.55;4.57;;;;;;;;;;4966690;28;20034;-78
2021/08/23 14:01:09;;;;;;;6.40;4.10;;;;;;;;;;4967670;28;20034;-76
2021/08/23 14:03:34;;;;;;;5.45;3.67;;;;;;;;;;4968084;28;20516;-76
2021/08/23 14:06:00;;;;;;;6.40;3.88;;;;;;;;;;4963410;28;20088;-76
2021/08/23 14:08:25;;;;;;;5.15;3.90;;;;;;;;;;4967376;28;20031;-77
2021/08/23 14:10:51;;;;;;;5.55;3.85;;;;;;;;;;4967299;28;20042;-79
2021/08/23 14:13:16;;;;;;;5.93;4.35;;;;;;;;;;4975367;28;20109;-79
2021/08/23 14:15:42;;;;;;;8.27;4.18;;;;;;;;;;4968276;28;20031;-78
2021/08/23 14:18:07;;;;;;;7.43;5.07;;;;;;;;;;4964120;28;20035;-75
2021/08/23 14:20:33;;;;;;;8.85;4.65;;;;;;;;;;4962235;28;20405;-75
2021/08/23 14:22:58;;;;;;;6.97;5.07;;;;;;;;;;4962220;28;20082;-75
2021/08/23 14:25:24;;;;;;;7.18;4.13;;;;;;;;;;4958808;28;20030;-77
2021/08/23 14:27:49;;;;;;;4.70;4.13;;;;;;;;;;4966694;28;20041;-75
2021/08/23 14:30:15;;;;;;;6.28;4.32;;;;;;;;;;4971598;28;20027;-76
2021/08/23 14:32:40;;;;;;;7.03;4.00;;;;;;;;;;4969718;28;20034;-75
2021/08/23 14:35:07;;;;;;;6.30;4.40;;;;;;;;;;4965768;28;20065;-76
2021/08/23 14:37:32;;;;;;;7.82;4.55;;;;;;;;;;4943606;28;20035;-76